Dorchester, WI (54425)

4:36 PM CST on December 21, 2014 (GMT -0600)
Taylor County | Change Station
CLOSE
Current Station
Airport
Location: Medford,
Elevation: 1470 ft
Nearby Weather Stations

Elev 1470 ft 45.10 °N, 90.30 °W | Updated 21 minutes ago

Snow
Snow
32 °F
Feels Like 22 °F
N
14
Wind Variable Wind from SSE
Gusts 22 mph

Today
High -- | Low -- °F
--% Chance of Precip.
Yesterday
High -- | Low -- °F
Precip. -- in
7:36 AM 4:22 PM
Waning Crescent, 0% visible
Pressure 29.85 in
Visibility 1.0 miles
Clouds Overcast 300 ft
Windchill 22 °F
Dew Point 32 °F
Humidity 100%
Rainfall 0.01 in
Snow Depth Not available.
UV 0 out of 12
Pollen .10 out of 12
Air Quality Not available.
Flu Activity Not available.
METAR KMDZ 212215Z AUTO 15012G19KT 1SM -DZ OVC003 00/00 A2985 RMK AO2 T00000000

More Conditions Fewer Conditions

Pressure 29.85 in
Visibility 1.0 miles
Clouds Overcast 300 ft
Windchill 22 °F
Dew Point 32 °F
Humidity 100%
Rainfall 0.01 in
Snow Depth Not available.
UV 0 out of 12
Pollen .10 out of 12
Air Quality Not available.
Flu Activity Not available.
METAR KMDZ 212215Z AUTO 15012G19KT 1SM -DZ OVC003 00/00 A2985 RMK AO2 T00000000

More Conditions Fewer Conditions

10-Day Weather Forecast

Almanac

Astronomy

Dec. 21, 2014 Rise Set
Actual Time
Civil Twilight
Nautical Twilight
Astronomical Twilight
Moon
Length of Visible Light
Length of Day
Tomorrow will be .
, % of the Moon is Illuminated

Today's Extremes

State Highs State Lows

Community

WunderPhotos

Upload Photos

1,779,499 photos uploaded!

WunderBlogs® & News

Nearby

Air Quality

  Air Quality AQ Index Pollutant
Not available.

Snow Depth

Station Depth Elevation

Earthquake Activity

City Distance Mag. Time & Date
Minimum magnitude displayed is 2.5.

Coastal Water Temperatures

Place Temperature

Nearby Weather Stations